Time;durP1;ratioP1;P1;durP2;ratioP2;P2;SDS_P1;SDS_P2;PMS_P1;PMS_P2;Temp;Humidity;BMP_temperature;BMP_pressure;BME280_temperature;BME280_humidity;BME280_pressure;Samples;Min_cycle;Max_cycle;Signal;HPM_P1;HPM_P2
2021/08/30 00:02:18;;;;;;;;;;;;;;;15.58;94.66;101976.88;5069250;28;20375;-48
2021/08/30 00:04:45;;;;;;;;;;;;;;;15.58;94.93;101971.56;5072728;28;20449;-47
2021/08/30 00:07:12;;;;;;;;;;;;;;;15.59;94.89;101972.44;5068337;28;19970;-45
2021/08/30 00:09:39;;;;;;;;;;;;;;;15.61;94.57;101978.47;5046971;28;19925;-45
2021/08/30 00:12:06;;;;;;;;;;;;;;;15.62;94.25;101974.88;5057646;28;19948;-45
2021/08/30 00:14:33;;;;;;;;;;;;;;;15.56;94.70;101973.50;5066482;28;19924;-44
2021/08/30 00:16:59;;;;;;;;;;;;;;;15.48;95.21;101978.47;5054945;28;19925;-45
2021/08/30 00:19:28;;;;;;;;;;;;;;;15.46;95.28;101967.09;5064054;28;19931;-46
2021/08/30 00:21:55;;;;;;;;;;;;;;;15.46;95.25;101967.97;5045945;28;19932;-45
2021/08/30 00:24:24;;;;;;;;;;;;;;;15.47;95.03;101969.66;5074273;28;20280;-47
2021/08/30 00:26:51;;;;;;;;;;;;;;;15.49;95.30;101964.28;5065510;28;20375;-49
2021/08/30 00:29:24;;;;;;;;;;;;;;;15.47;95.00;101963.50;5062748;28;20395;-50
2021/08/30 00:31:54;;;;;;;;;;;;;;;15.47;95.14;101960.84;5020108;28;20269;-47
2021/08/30 00:34:21;;;;;;;;;;;;;;;15.41;95.39;101963.94;5058053;28;20307;-48
2021/08/30 00:36:48;;;;;;;;;;;;;;;15.36;95.56;101959.78;5059966;28;19978;-46
2021/08/30 00:39:18;;;;;;;;;;;;;;;15.32;95.60;101971.53;5056035;28;20268;-47
2021/08/30 00:41:46;;;;;;;;;;;;;;;15.25;96.55;101967.63;5071924;28;19929;-46
2021/08/30 00:44:12;;;;;;;;;;;;;;;15.31;96.60;101972.50;5064937;28;19924;-47
2021/08/30 00:46:39;;;;;;;;;;;;;;;15.32;96.07;101974.19;5054659;28;20387;-45
2021/08/30 00:49:05;;;;;;;;;;;;;;;15.37;96.24;101964.13;5073894;28;19954;-50
2021/08/30 00:51:32;;;;;;;;;;;;;;;15.36;96.45;101965.06;5068444;28;19924;-48
2021/08/30 00:53:59;;;;;;;;;;;;;;;15.42;96.53;101958.53;5053101;28;20295;-45
2021/08/30 00:56:26;;;;;;;;;;;;;;;15.44;95.87;101961.06;5051771;28;19967;-45
2021/08/30 00:58:53;;;;;;;;;;;;;;;15.49;96.00;101962.47;5054465;28;19989;-45
2021/08/30 01:01:19;;;;;;;;;;;;;;;15.48;96.25;101960.75;5058346;28;19947;-47
2021/08/30 01:03:47;;;;;;;;;;;;;;;15.54;95.62;101967.44;5060860;28;20023;-43
2021/08/30 01:06:35;;;;;;;;;;;;;;;15.48;96.10;101958.09;5055834;28;20372;-45
2021/08/30 01:09:06;;;;;;;;;;;;;;;15.51;95.99;101960.53;5058403;28;20383;-47
2021/08/30 01:11:34;;;;;;;;;;;;;;;15.58;95.76;101966.25;5055989;28;19986;-46
2021/08/30 01:14:01;;;;;;;;;;;;;;;15.53;95.92;101973.72;5039033;28;20407;-45
2021/08/30 01:16:28;;;;;;;;;;;;;;;15.51;95.73;101970.31;5073340;28;19930;-47
2021/08/30 01:18:55;;;;;;;;;;;;;;;15.53;95.84;101969.25;5052297;28;19935;-46
2021/08/30 01:21:22;;;;;;;;;;;;;;;15.52;96.00;101975.50;5044640;28;19928;-44
2021/08/30 01:23:54;;;;;;;;;;;;;;;15.53;95.61;101976.34;5071047;28;19924;-47
2021/08/30 01:26:21;;;;;;;;;;;;;;;15.55;95.78;101972.63;5075047;28;19925;-48
2021/08/30 01:29:02;;;;;;;;;;;;;;;15.64;95.53;101978.28;5048388;28;19925;-46
2021/08/30 01:31:34;;;;;;;;;;;;;;;15.65;94.97;101975.53;5063519;28;19931;-44
2021/08/30 01:34:00;;;;;;;;;;;;;;;15.61;95.14;101978.47;5052987;28;19933;-44
2021/08/30 01:36:27;;;;;;;;;;;;;;;15.67;94.75;101978.91;5052849;28;19929;-43
2021/08/30 01:38:58;;;;;;;;;;;;;;;15.74;94.52;101975.84;5063128;28;19970;-43
2021/08/30 01:41:25;;;;;;;;;;;;;;;15.72;94.40;101971.47;5055846;28;20358;-44
2021/08/30 01:43:52;;;;;;;;;;;;;;;15.70;94.54;101977.84;5036296;28;19924;-45
2021/08/30 01:46:19;;;;;;;;;;;;;;;15.75;94.22;101981.03;5036958;28;19933;-45
2021/08/30 01:48:50;;;;;;;;;;;;;;;15.75;93.73;101972.19;5070566;28;19932;-47
2021/08/30 01:51:17;;;;;;;;;;;;;;;15.77;93.57;101971.16;5042659;28;20310;-49
2021/08/30 01:53:45;;;;;;;;;;;;;;;15.80;93.84;101972.78;5053217;28;19929;-47
2021/08/30 01:56:12;;;;;;;;;;;;;;;15.80;93.54;101968.34;5051923;28;19929;-49
2021/08/30 02:01:05;;;;;;;;;;;;;;;15.78;93.18;101967.53;5040479;28;19932;-46
2021/08/30 02:03:32;;;;;;;;;;;;;;;15.80;93.13;101973.66;5049323;28;19933;-47
2021/08/30 02:06:00;;;;;;;;;;;;;;;15.78;92.91;101970.19;5044161;28;19925;-50
2021/08/30 02:08:27;;;;;;;;;;;;;;;15.76;93.00;101977.44;5068339;28;19952;-48
2021/08/30 02:10:54;;;;;;;;;;;;;;;15.78;92.69;101979.97;5060629;28;19931;-45
2021/08/30 02:13:25;;;;;;;;;;;;;;;15.81;92.64;101974.47;5052720;28;20470;-49
2021/08/30 02:15:52;;;;;;;;;;;;;;;15.79;92.61;101971.91;5053727;28;19928;-47
2021/08/30 02:18:27;;;;;;;;;;;;;;;15.82;92.45;101973.53;5050975;28;19940;-48
2021/08/30 02:20:58;;;;;;;;;;;;;;;15.75;92.64;101966.91;5063722;28;19940;-48
2021/08/30 02:23:25;;;;;;;;;;;;;;;15.81;92.25;101971.81;5055346;28;20388;-46
2021/08/30 02:25:52;;;;;;;;;;;;;;;15.81;92.17;101966.53;5027953;28;19959;-55
2021/08/30 02:28:19;;;;;;;;;;;;;;;15.77;92.66;101975.63;5075002;28;19925;-54
2021/08/30 02:30:46;;;;;;;;;;;;;;;15.77;92.49;101972.97;5051141;28;19924;-54
2021/08/30 02:33:12;;;;;;;;;;;;;;;15.76;92.47;101972.13;5056877;28;19932;-52
2021/08/30 02:35:40;;;;;;;;;;;;;;;15.78;92.66;101969.38;5057105;28;19925;-54
2021/08/30 02:38:07;;;;;;;;;;;;;;;15.80;92.53;101967.47;5076577;28;20407;-55
2021/08/30 02:40:33;;;;;;;;;;;;;;;15.79;92.29;101971.91;5065084;28;19929;-51
2021/08/30 02:43:00;;;;;;;;;;;;;;;15.80;92.46;101975.44;5065932;28;19972;-54
2021/08/30 02:45:27;;;;;;;;;;;;;;;15.81;91.99;101966.53;5049517;28;19986;-53
2021/08/30 02:47:55;;;;;;;;;;;;;;;15.83;91.92;101967.28;5054830;28;20387;-52
2021/08/30 02:50:22;;;;;;;;;;;;;;;15.83;92.24;101964.63;5022082;28;19936;-53
2021/08/30 02:52:48;;;;;;;;;;;;;;;15.80;92.39;101962.16;5056172;28;20282;-54
2021/08/30 02:55:15;;;;;;;;;;;;;;;15.76;92.63;101963.31;5067982;28;19971;-52
2021/08/30 02:57:42;;;;;;;;;;;;;;;15.82;92.69;101966.41;5067075;28;20376;-50
2021/08/30 03:00:09;;;;;;;;;;;;;;;15.76;92.77;101972.13;5056034;28;19932;-52
2021/08/30 03:02:36;;;;;;;;;;;;;;;15.83;92.70;101961.97;5060224;28;19947;-52
2021/08/30 03:05:03;;;;;;;;;;;;;;;15.75;92.94;101961.59;5065191;28;19939;-54
2021/08/30 03:07:30;;;;;;;;;;;;;;;15.77;93.32;101954.41;5065220;28;19971;-54
2021/08/30 03:09:58;;;;;;;;;;;;;;;15.76;93.09;101958.88;5044141;28;19928;-54
2021/08/30 03:12:25;;;;;;;;;;;;;;;15.78;93.45;101956.94;5053559;28;19925;-53
2021/08/30 03:14:52;;;;;;;;;;;;;;;15.74;93.47;101959.91;5042357;28;19929;-53
2021/08/30 03:17:18;;;;;;;;;;;;;;;15.76;93.54;101955.34;5057536;28;19928;-53
2021/08/30 03:19:46;;;;;;;;;;;;;;;15.76;93.59;101961.50;5071977;28;20562;-51
2021/08/30 03:22:13;;;;;;;;;;;;;;;15.76;93.90;101955.34;5068878;28;19986;-54
2021/08/30 03:24:41;;;;;;;;;;;;;;;15.82;93.72;101965.56;5056937;28;20257;-54
2021/08/30 03:27:08;;;;;;;;;;;;;;;15.72;94.25;101968.81;5055922;28;19924;-53
2021/08/30 03:29:35;;;;;;;;;;;;;;;15.70;94.34;101965.41;5064725;28;20368;-53
2021/08/30 03:32:02;;;;;;;;;;;;;;;15.76;94.17;101965.94;5068391;28;20008;-51
2021/08/30 03:34:29;;;;;;;;;;;;;;;15.75;94.27;101962.47;5054329;28;20429;-53
2021/08/30 03:36:55;;;;;;;;;;;;;;;15.80;94.35;101959.50;5060579;28;19932;-54
2021/08/30 03:39:22;;;;;;;;;;;;;;;15.77;94.24;101963.19;5056362;28;19936;-55
2021/08/30 03:41:50;;;;;;;;;;;;;;;15.79;94.54;101952.47;5030589;28;19925;-54
2021/08/30 03:44:18;;;;;;;;;;;;;;;15.82;94.41;101950.50;5057633;28;19970;-51
2021/08/30 03:46:44;;;;;;;;;;;;;;;15.83;94.37;101952.19;5053278;28;19932;-54
2021/08/30 03:49:11;;;;;;;;;;;;;;;15.91;94.43;101950.81;5053734;28;19953;-55
2021/08/30 03:51:38;;;;;;;;;;;;;;;15.87;94.32;101951.03;5050301;28;20342;-54
2021/08/30 03:54:04;;;;;;;;;;;;;;;15.82;95.08;101947.84;5039317;28;19924;-54
2021/08/30 03:56:31;;;;;;;;;;;;;;;15.87;94.92;101952.84;5053789;28;19955;-53
2021/08/30 03:59:01;;;;;;;;;;;;;;;15.88;94.72;101962.47;5073964;28;20333;-53
2021/08/30 04:01:29;;;;;;;;;;;;;;;15.84;95.15;101955.69;5045644;28;19931;-53
2021/08/30 04:03:57;;;;;;;;;;;;;;;15.89;95.16;101945.63;5054890;28;19928;-53
2021/08/30 04:06:24;;;;;;;;;;;;;;;15.92;94.68;101945.38;5072517;28;19925;-51
2021/08/30 04:08:50;;;;;;;;;;;;;;;15.92;94.47;101942.72;5060478;28;20437;-53
2021/08/30 04:11:19;;;;;;;;;;;;;;;15.97;95.01;101940.63;5060906;28;19925;-53
2021/08/30 04:13:46;;;;;;;;;;;;;;;15.99;94.89;101943.16;5058832;28;20011;-52
2021/08/30 04:16:13;;;;;;;;;;;;;;;15.99;94.79;101946.66;5055435;28;19925;-53
2021/08/30 04:18:39;;;;;;;;;;;;;;;16.01;94.96;101946.56;5060318;28;20283;-53
2021/08/30 04:21:06;;;;;;;;;;;;;;;16.01;94.92;101955.34;5062311;28;19935;-52
2021/08/30 04:23:33;;;;;;;;;;;;;;;16.01;95.05;101958.00;5064164;28;19925;-51
2021/08/30 04:25:59;;;;;;;;;;;;;;;15.99;95.16;101964.38;5074335;28;20382;-48
2021/08/30 04:28:26;;;;;;;;;;;;;;;15.97;95.63;101961.84;5066446;28;19970;-52
2021/08/30 04:30:53;;;;;;;;;;;;;;;16.03;95.47;101964.06;5070068;28;19924;-54
2021/08/30 04:33:21;;;;;;;;;;;;;;;16.02;95.47;101957.06;5073569;28;19931;-53
2021/08/30 04:35:48;;;;;;;;;;;;;;;15.98;95.75;101963.53;5070282;28;19924;-54
2021/08/30 04:38:15;;;;;;;;;;;;;;;15.98;95.79;101963.53;5058574;28;19925;-53
2021/08/30 04:40:41;;;;;;;;;;;;;;;15.99;96.30;101954.63;5040546;28;19970;-54
2021/08/30 04:43:08;;;;;;;;;;;;;;;16.04;96.07;101962.25;5045271;28;19978;-50
2021/08/30 04:45:36;;;;;;;;;;;;;;;16.06;95.92;101965.66;5068133;28;20440;-54
2021/08/30 04:48:03;;;;;;;;;;;;;;;16.10;95.80;101966.28;5051621;28;19963;-53
2021/08/30 04:50:30;;;;;;;;;;;;;;;16.03;95.92;101965.84;5070750;28;19932;-51
2021/08/30 04:52:56;;;;;;;;;;;;;;;16.12;95.50;101967.88;5055566;28;20437;-52
2021/08/30 04:55:23;;;;;;;;;;;;;;;16.08;95.36;101963.72;5057817;28;19994;-53
2021/08/30 04:57:50;;;;;;;;;;;;;;;16.09;95.29;101964.56;5056248;28;19971;-53
2021/08/30 05:00:16;;;;;;;;;;;;;;;16.13;95.31;101968.69;5071727;28;19974;-51
2021/08/30 05:02:43;;;;;;;;;;;;;;;16.12;95.18;101972.34;5037624;28;19964;-52
2021/08/30 05:05:10;;;;;;;;;;;;;;;16.11;95.14;101971.47;5073370;28;20023;-53
2021/08/30 05:07:36;;;;;;;;;;;;;;;16.03;95.94;101972.03;5058197;28;19975;-51
2021/08/30 05:10:03;;;;;;;;;;;;;;;16.08;95.47;101969.03;5065937;28;19948;-51
2021/08/30 05:12:30;;;;;;;;;;;;;;;16.04;95.33;101968.41;5052992;28;19924;-55
2021/08/30 05:14:56;;;;;;;;;;;;;;;16.09;95.01;101972.53;5052957;28;20426;-53
2021/08/30 05:17:23;;;;;;;;;;;;;;;16.05;95.34;101975.41;5053018;28;19924;-54
2021/08/30 05:19:50;;;;;;;;;;;;;;;16.09;95.11;101976.06;5035165;28;19928;-53
2021/08/30 05:22:16;;;;;;;;;;;;;;;16.12;95.14;101980.28;5035232;28;19967;-54
2021/08/30 05:24:43;;;;;;;;;;;;;;;16.07;95.00;101983.25;5052706;28;19924;-54
2021/08/30 05:27:10;;;;;;;;;;;;;;;16.02;95.28;101988.91;5053180;28;20621;-54
2021/08/30 05:29:37;;;;;;;;;;;;;;;16.06;94.99;101986.88;5052543;28;20428;-50
2021/08/30 05:32:03;;;;;;;;;;;;;;;16.03;95.03;101989.72;5052491;28;19978;-53
2021/08/30 05:34:30;;;;;;;;;;;;;;;15.99;95.90;101989.13;5058902;28;19924;-54
2021/08/30 05:36:57;;;;;;;;;;;;;;;16.00;95.60;101995.25;5078729;28;20015;-54
2021/08/30 05:39:23;;;;;;;;;;;;;;;15.98;95.94;101995.38;5066892;28;19928;-52
2021/08/30 05:41:50;;;;;;;;;;;;;;;15.99;96.12;101996.22;5075605;28;19925;-54
2021/08/30 05:44:16;;;;;;;;;;;;;;;16.04;95.79;102002.88;5040791;28;19935;-50
2021/08/30 05:46:43;;;;;;;;;;;;;;;16.02;95.80;102006.59;5069317;28;20307;-44
2021/08/30 05:49:10;;;;;;;;;;;;;;;16.03;96.00;102005.66;5060345;28;20379;-50
2021/08/30 05:51:36;;;;;;;;;;;;;;;16.07;96.03;102008.94;5057546;28;19982;-50
2021/08/30 05:54:03;;;;;;;;;;;;;;;16.12;95.82;102012.13;5068470;28;20376;-47
2021/08/30 05:56:30;;;;;;;;;;;;;;;16.15;95.65;102009.25;5054015;28;19924;-45
2021/08/30 05:58:56;;;;;;;;;;;;;;;16.18;95.53;102017.00;5055920;28;19928;-49
2021/08/30 06:01:23;;;;;;;;;;;;;;;16.18;95.69;102019.66;5068803;28;19982;-48
2021/08/30 06:03:50;;;;;;;;;;;;;;;16.23;95.54;102012.22;5076638;28;19924;-49
2021/08/30 06:06:17;;;;;;;;;;;;;;;16.25;95.36;102012.94;5090894;28;19931;-47
2021/08/30 06:08:44;;;;;;;;;;;;;;;16.30;95.47;102015.28;5067189;28;19925;-50
2021/08/30 06:11:10;;;;;;;;;;;;;;;16.28;95.27;102011.88;5068370;28;19924;-46
2021/08/30 06:13:37;;;;;;;;;;;;;;;16.32;95.16;102010.69;5054798;28;20379;-51
2021/08/30 06:16:03;;;;;;;;;;;;;;;16.36;94.60;102018.34;5072759;28;19924;-46
2021/08/30 06:18:30;;;;;;;;;;;;;;;16.37;94.73;102014.75;5071662;28;20391;-45
2021/08/30 06:20:57;;;;;;;;;;;;;;;16.41;94.59;102017.19;5072701;28;19936;-47
2021/08/30 06:23:23;;;;;;;;;;;;;;;16.51;94.52;102016.41;5072614;28;19951;-43
2021/08/30 06:25:50;;;;;;;;;;;;;;;16.67;94.31;102013.47;5072857;28;19932;-45
2021/08/30 06:28:16;;;;;;;;;;;;;;;16.71;93.43;102017.63;5054361;28;20395;-50
2021/08/30 06:30:43;;;;;;;;;;;;;;;16.79;93.09;102010.91;5072421;28;19929;-49
2021/08/30 06:33:13;;;;;;;;;;;;;;;16.89;92.18;102014.59;5055887;28;19932;-49
2021/08/30 06:35:42;;;;;;;;;;;;;;;17.02;92.18;102018.06;5072650;28;19931;-51
2021/08/30 06:38:10;;;;;;;;;;;;;;;17.13;92.13;102013.75;5072410;28;19925;-48
2021/08/30 06:40:36;;;;;;;;;;;;;;;17.22;91.98;102008.59;5068843;28;19934;-49
2021/08/30 06:43:03;;;;;;;;;;;;;;;17.28;90.73;102015.25;5062736;28;19997;-50
2021/08/30 06:45:30;;;;;;;;;;;;;;;17.37;90.21;102019.06;5069880;28;20395;-46
2021/08/30 06:47:57;;;;;;;;;;;;;;;17.41;89.94;102017.84;5055630;28;20049;-44
2021/08/30 06:50:24;;;;;;;;;;;;;;;17.47;89.77;102011.22;5080768;28;19970;-48
2021/08/30 06:52:51;;;;;;;;;;;;;;;17.50;89.38;102017.13;5071942;28;19924;-45
2021/08/30 06:55:18;;;;;;;;;;;;;;;17.53;89.21;102024.03;5054449;28;19970;-46
2021/08/30 06:57:45;;;;;;;;;;;;;;;17.57;88.43;102021.03;5071945;28;19968;-47
2021/08/30 07:00:12;;;;;;;;;;;;;;;17.61;88.35;102013.66;5071497;28;19969;-47
2021/08/30 07:02:38;;;;;;;;;;;;;;;17.70;88.75;102012.13;5092408;28;19926;-43
2021/08/30 07:05:05;;;;;;;;;;;;;;;17.69;88.02;102018.41;5061380;28;19929;-43
2021/08/30 07:07:32;;;;;;;;;;;;;;;17.70;87.80;102018.28;5072855;28;19925;-46
2021/08/30 07:09:59;;;;;;;;;;;;;;;17.68;87.80;102009.59;5046551;28;20383;-44
2021/08/30 07:12:25;;;;;;;;;;;;;;;17.81;87.95;102006.81;5065902;28;19931;-47
2021/08/30 07:14:53;;;;;;;;;;;;;;;17.88;87.09;102015.16;5055765;28;19925;-44
2021/08/30 07:17:20;;;;;;;;;;;;;;;17.99;87.23;102015.19;5062195;28;19975;-44
2021/08/30 07:19:46;;;;;;;;;;;;;;;18.10;86.82;102011.69;5057948;28;19970;-44
2021/08/30 07:22:13;;;;;;;;;;;;;;;18.26;85.31;102024.63;5073428;28;19925;-46
2021/08/30 07:24:40;;;;;;;;;;;;;;;18.24;85.52;102014.13;5055923;28;20295;-51
2021/08/30 07:27:07;;;;;;;;;;;;;;;18.22;85.32;102016.03;5039254;28;19990;-49
2021/08/30 07:29:33;;;;;;;;;;;;;;;18.17;85.47;102015.56;5075558;28;20437;-54
2021/08/30 07:32:00;;;;;;;;;;;;;;;18.15;85.46;102014.00;5070836;28;19986;-55
2021/08/30 07:34:27;;;;;;;;;;;;;;;18.18;85.62;102017.25;5061184;28;19928;-48
2021/08/30 07:36:54;;;;;;;;;;;;;;;18.18;85.91;102022.56;5068881;28;20094;-42
2021/08/30 07:39:21;;;;;;;;;;;;;;;18.30;85.30;102018.09;5048352;28;19978;-50
2021/08/30 07:41:48;;;;;;;;;;;;;;;18.40;85.11;102018.22;5056344;28;20332;-48
2021/08/30 07:44:14;;;;;;;;;;;;;;;18.33;84.83;102025.84;5055076;28;19925;-48
2021/08/30 07:46:41;;;;;;;;;;;;;;;18.50;84.24;102015.66;5056440;28;20402;-45
2021/08/30 07:49:08;;;;;;;;;;;;;;;18.50;83.52;102020.97;5055130;28;19960;-49
2021/08/30 07:51:34;;;;;;;;;;;;;;;18.55;84.29;102030.28;5056393;28;19932;-48
2021/08/30 07:54:01;;;;;;;;;;;;;;;18.55;83.49;102026.78;5055378;28;19928;-45
2021/08/30 07:56:27;;;;;;;;;;;;;;;18.60;83.41;102032.59;5056456;28;19933;-52
2021/08/30 07:58:54;;;;;;;;;;;;;;;18.51;83.73;102039.50;5086522;28;19931;-52
2021/08/30 08:01:21;;;;;;;;;;;;;;;18.57;83.49;102032.84;5075055;28;19986;-54
2021/08/30 08:03:48;;;;;;;;;;;;;;;18.68;83.27;102043.47;5057482;28;19954;-54
2021/08/30 08:06:16;;;;;;;;;;;;;;;18.61;82.46;102039.63;5069868;28;20326;-55
2021/08/30 08:08:43;;;;;;;;;;;;;;;18.77;82.35;102039.22;5073233;28;19931;-54
2021/08/30 08:11:10;;;;;;;;;;;;;;;18.73;82.29;102037.75;5070798;28;19924;-54
2021/08/30 08:13:36;;;;;;;;;;;;;;;18.87;82.66;102033.97;5095012;28;19934;-49
2021/08/30 08:16:03;;;;;;;;;;;;;;;18.83;81.68;102035.19;5070812;28;20371;-51
2021/08/30 08:18:32;;;;;;;;;;;;;;;19.00;81.76;102037.34;5058083;28;19932;-54
2021/08/30 08:21:01;;;;;;;;;;;;;;;19.11;80.75;102025.81;5085107;28;19929;-53
2021/08/30 08:23:27;;;;;;;;;;;;;;;19.16;79.66;102033.44;5074521;28;19931;-53
2021/08/30 08:25:54;;;;;;;;;;;;;;;19.53;79.12;102025.84;5072676;28;19925;-53
2021/08/30 08:28:20;;;;;;;;;;;;;;;19.59;78.97;102032.47;5069890;28;20330;-53
2021/08/30 08:30:47;;;;;;;;;;;;;;;19.88;79.36;102030.03;5061359;28;19928;-54
2021/08/30 08:33:14;;;;;;;;;;;;;;;20.06;78.78;102024.06;5056340;28;19925;-53
2021/08/30 08:35:42;;;;;;;;;;;;;;;20.04;77.40;102026.88;5039203;28;19929;-50
2021/08/30 08:38:09;;;;;;;;;;;;;;;20.15;77.60;102023.28;5063701;28;19924;-54
2021/08/30 08:40:36;;;;;;;;;;;;;;;20.15;76.97;102035.75;5049999;28;19956;-53
2021/08/30 08:43:02;;;;;;;;;;;;;;;20.01;76.95;102027.13;5070209;28;19970;-54
2021/08/30 08:45:29;;;;;;;;;;;;;;;19.95;75.93;102030.34;5055770;28;19924;-53
2021/08/30 08:47:55;;;;;;;;;;;;;;;20.09;76.26;102031.81;5052699;28;20326;-54
2021/08/30 08:50:26;;;;;;;;;;;;;;;20.22;76.15;102031.56;5050636;28;19929;-54
2021/08/30 08:52:53;;;;;;;;;;;;;;;20.06;74.61;102043.59;5059406;28;20269;-55
2021/08/30 08:55:19;;;;;;;;;;;;;;;20.21;75.30;102040.59;5054970;28;19924;-49
2021/08/30 08:57:46;;;;;;;;;;;;;;;20.24;73.99;102042.97;5049815;28;20449;-49
2021/08/30 09:00:14;;;;;;;;;;;;;;;20.25;73.06;102042.84;5056923;28;20430;-47
2021/08/30 09:02:40;;;;;;;;;;;;;;;20.32;74.04;102050.31;5072950;28;19924;-47
2021/08/30 09:05:08;;;;;;;;;;;;;;;20.25;73.09;102047.34;5068609;28;19983;-47
2021/08/30 09:07:39;;;;;;;;;;;;;;;20.21;72.72;102048.59;5040356;28;19979;-48
2021/08/30 09:10:11;;;;;;;;;;;;;;;20.24;72.82;102041.13;5052593;28;19935;-53
2021/08/30 09:12:39;;;;;;;;;;;;;;;20.24;73.01;102032.28;5055849;28;19929;-55
2021/08/30 09:15:13;;;;;;;;;;;;;;;20.33;72.54;102028.81;5057806;28;19928;-54
2021/08/30 09:17:52;;;;;;;;;;;;;;;20.43;72.60;102044.88;5042122;28;19925;-54
2021/08/30 09:20:20;;;;;;;;;;;;;;;20.60;72.73;102038.00;5054902;28;20375;-54
2021/08/30 09:22:47;;;;;;;;;;;;;;;20.54;73.11;102044.75;5041057;28;19929;-54
2021/08/30 09:25:15;;;;;;;;;;;;;;;20.39;72.88;102041.63;5065076;28;19928;-55
2021/08/30 09:27:44;;;;;;;;;;;;;;;20.37;72.45;102043.59;5056412;28;19928;-55
2021/08/30 09:30:12;;;;;;;;;;;;;;;20.69;71.92;102049.75;5052713;28;19964;-52
2021/08/30 09:32:46;;;;;;;;;;;;;;;21.12;72.19;102040.53;5045157;28;19924;-53
2021/08/30 09:35:13;;;;;;;;;;;;;;;21.30;70.55;102039.78;5074623;28;19969;-53
2021/08/30 09:37:40;;;;;;;;;;;;;;;21.40;70.28;102038.81;5093361;28;19924;-54
2021/08/30 09:40:12;;;;;;;;;;;;;;;21.40;69.24;102030.78;5071551;28;19933;-52
2021/08/30 09:42:49;;;;;;;;;;;;;;;21.17;68.97;102030.22;5061982;28;19936;-52
2021/08/30 09:45:17;;;;;;;;;;;;;;;21.28;68.46;102029.25;5071036;28;20566;-54
2021/08/30 09:47:54;;;;;;;;;;;;;;;21.22;68.44;102025.31;5058237;28;19924;-54
2021/08/30 09:50:31;;;;;;;;;;;;;;;21.28;68.19;102029.25;5070116;28;19932;-54
2021/08/30 09:52:58;;;;;;;;;;;;;;;21.22;66.93;102027.16;5058648;28;20276;-54
2021/08/30 09:55:25;;;;;;;;;;;;;;;21.27;66.44;102025.72;5082476;28;19925;-50
2021/08/30 09:57:52;;;;;;;;;;;;;;;21.32;66.24;102024.47;5071736;28;19936;-53
2021/08/30 10:00:20;;;;;;;;;;;;;;;21.39;66.44;102022.91;5061908;28;19928;-55
2021/08/30 10:02:48;;;;;;;;;;;;;;;21.47;65.93;102019.50;5092613;28;19924;-52
2021/08/30 10:05:15;;;;;;;;;;;;;;;21.71;66.26;102022.59;5059764;28;19932;-55
2021/08/30 10:07:44;;;;;;;;;;;;;;;21.98;65.99;102020.09;5062628;28;19929;-55
2021/08/30 10:10:11;;;;;;;;;;;;;;;22.43;65.37;102022.06;5057888;28;19971;-53
2021/08/30 10:12:38;;;;;;;;;;;;;;;22.66;62.51;102030.53;5061859;28;19935;-53
2021/08/30 10:15:05;;;;;;;;;;;;;;;22.78;62.03;102015.91;5067688;28;19931;-52
2021/08/30 10:17:31;;;;;;;;;;;;;;;22.94;60.47;102011.69;5074441;28;20341;-52
2021/08/30 10:19:59;;;;;;;;;;;;;;;23.15;62.64;102011.41;5045946;28;20244;-54
2021/08/30 10:22:26;;;;;;;;;;;;;;;23.00;60.45;102013.78;5052554;28;19979;-54
2021/08/30 10:24:53;;;;;;;;;;;;;;;22.93;59.76;102010.84;5034727;28;19929;-55
2021/08/30 10:27:26;;;;;;;;;;;;;;;23.24;59.66;102013.16;5035197;28;20411;-53
2021/08/30 10:30:01;;;;;;;;;;;;;;;23.25;60.29;102009.47;5052447;28;19931;-54
2021/08/30 10:32:30;;;;;;;;;;;;;;;23.32;58.95;102011.53;5075026;28;19924;-54
2021/08/30 10:34:57;;;;;;;;;;;;;;;23.52;58.35;102009.50;5075234;28;20029;-53
2021/08/30 10:37:24;;;;;;;;;;;;;;;23.58;56.72;102008.88;5058155;28;19924;-51
2021/08/30 10:39:54;;;;;;;;;;;;;;;23.69;57.82;102016.66;5092819;28;20367;-54
2021/08/30 10:42:21;;;;;;;;;;;;;;;23.67;56.88;102015.97;5092712;28;19935;-54
2021/08/30 10:44:49;;;;;;;;;;;;;;;23.63;56.48;102014.63;5076933;28;20019;-53
2021/08/30 10:47:15;;;;;;;;;;;;;;;23.64;57.09;102005.53;5061948;28;20267;-56
2021/08/30 10:49:42;;;;;;;;;;;;;;;23.72;56.54;102007.44;5096642;28;20720;-54
2021/08/30 10:52:14;;;;;;;;;;;;;;;23.95;56.13;102005.91;5096393;28;19924;-54
2021/08/30 10:54:53;;;;;;;;;;;;;;;24.18;55.78;101999.13;5067218;28;19924;-54
2021/08/30 10:57:37;;;;;;;;;;;;;;;24.42;54.51;101999.22;5075281;28;20322;-53
2021/08/30 11:00:04;;;;;;;;;;;;;;;24.52;52.50;102000.94;5094258;28;19924;-55
2021/08/30 11:02:40;;;;;;;;;;;;;;;24.26;54.26;101994.63;5052126;28;19924;-54
2021/08/30 11:05:07;;;;;;;;;;;;;;;24.43;54.17;101994.66;5077734;28;19925;-52
2021/08/30 11:07:34;;;;;;;;;;;;;;;24.41;54.29;101999.38;5063655;28;19925;-53
2021/08/30 11:10:01;;;;;;;;;;;;;;;24.29;53.95;101993.47;5068465;28;19928;-54
2021/08/30 11:12:27;;;;;;;;;;;;;;;24.16;53.60;102001.13;5071324;28;19955;-54
2021/08/30 11:14:55;;;;;;;;;;;;;;;24.06;54.68;101999.41;5066610;28;19924;-54
2021/08/30 11:17:28;;;;;;;;;;;;;;;23.98;54.59;102006.59;5067651;28;20322;-54
2021/08/30 11:19:55;;;;;;;;;;;;;;;23.92;54.23;102003.53;5065482;28;19978;-54
2021/08/30 11:22:22;;;;;;;;;;;;;;;23.84;54.70;102008.03;5047985;28;19933;-53
2021/08/30 11:24:49;;;;;;;;;;;;;;;23.58;53.89;102011.56;5063965;28;19931;-52
2021/08/30 11:27:24;;;;;;;;;;;;;;;23.37;55.26;102012.75;5045246;28;19925;-53
2021/08/30 11:29:52;;;;;;;;;;;;;;;23.16;55.94;102009.56;5064302;28;19932;-52
2021/08/30 11:32:20;;;;;;;;;;;;;;;23.37;55.67;101996.66;5063365;28;20058;-53
2021/08/30 11:34:47;;;;;;;;;;;;;;;23.35;55.94;102004.00;5063992;28;19925;-55
2021/08/30 11:37:21;;;;;;;;;;;;;;;23.18;57.71;102000.38;5045261;28;19974;-53
2021/08/30 11:39:50;;;;;;;;;;;;;;;23.34;57.74;101986.25;5042976;28;19970;-52
2021/08/30 11:42:17;;;;;;;;;;;;;;;23.46;57.51;101998.41;5070215;28;19925;-52
2021/08/30 11:44:44;;;;;;;;;;;;;;;23.63;56.57;101995.81;5052262;28;19932;-53
2021/08/30 11:47:12;;;;;;;;;;;;;;;24.33;55.60;101996.69;5053909;28;19955;-51
2021/08/30 11:49:39;;;;;;;;;;;;;;;24.54;53.47;101998.91;5059968;28;19940;-53
2021/08/30 11:52:06;;;;;;;;;;;;;;;24.74;53.15;102003.00;5063694;28;19982;-51
2021/08/30 11:54:34;;;;;;;;;;;;;;;24.83;50.46;101990.41;5030409;28;19928;-54
2021/08/30 11:57:05;;;;;;;;;;;;;;;25.11;51.02;101999.00;5071488;28;19932;-53
2021/08/30 11:59:33;;;;;;;;;;;;;;;25.20;50.38;101997.16;5063465;28;19925;-55
2021/08/30 12:02:00;;;;;;;;;;;;;;;25.32;50.09;101989.56;5065858;28;19971;-53
2021/08/30 12:04:28;;;;;;;;;;;;;;;25.24;50.16;101998.50;5046716;28;19966;-55
2021/08/30 12:06:55;;;;;;;;;;;;;;;25.38;50.98;101990.78;5060760;28;19925;-54
2021/08/30 12:09:22;;;;;;;;;;;;;;;25.54;50.77;101990.75;5062988;28;19932;-52
2021/08/30 12:11:50;;;;;;;;;;;;;;;26.03;49.43;101983.53;5065583;28;21154;-54
2021/08/30 12:14:17;;;;;;;;;;;;;;;26.19;45.98;101977.22;5060722;28;19929;-54
2021/08/30 12:16:45;;;;;;;;;;;;;;;26.26;46.96;101976.34;5046670;28;19928;-53
2021/08/30 12:19:12;;;;;;;;;;;;;;;26.21;45.78;101975.22;5060504;28;20421;-53
2021/08/30 12:21:39;;;;;;;;;;;;;;;26.45;47.59;101966.13;5075898;28;19968;-53
2021/08/30 12:24:09;;;;;;;;;;;;;;;26.51;46.26;101978.09;5032783;28;19925;-54
2021/08/30 12:26:36;;;;;;;;;;;;;;;26.25;45.44;101973.84;5069876;28;19971;-52
2021/08/30 12:29:03;;;;;;;;;;;;;;;26.44;45.31;101972.56;5059901;28;19932;-49
2021/08/30 12:31:31;;;;;;;;;;;;;;;26.46;44.96;101976.75;5066418;28;19932;-48
2021/08/30 12:34:02;;;;;;;;;;;;;;;26.30;45.60;101974.13;5075549;28;19924;-49
2021/08/30 12:36:28;;;;;;;;;;;;;;;26.68;44.87;101968.00;5057491;28;19989;-51
2021/08/30 12:38:55;;;;;;;;;;;;;;;26.89;43.37;101968.22;5059388;28;19928;-45
2021/08/30 12:41:22;;;;;;;;;;;;;;;26.96;42.40;101965.63;5074217;28;19954;-48